sensor_id;sensor_type;location;lat;lon;timestamp;temperature;humidity
79494;SHT31;68951;53.130;18.104;2023-05-01T00:00:36;3.76;57.37
79494;SHT31;68951;53.130;18.104;2023-05-01T00:03:13;3.71;57.47
79494;SHT31;68951;53.130;18.104;2023-05-01T00:05:40;3.67;57.59
79494;SHT31;68951;53.130;18.104;2023-05-01T00:08:07;3.62;57.70
79494;SHT31;68951;53.130;18.104;2023-05-01T00:10:35;3.55;57.80
79494;SHT31;68951;53.130;18.104;2023-05-01T00:13:02;3.51;57.88
79494;SHT31;68951;53.130;18.104;2023-05-01T00:15:30;3.52;57.98
79494;SHT31;68951;53.130;18.104;2023-05-01T00:17:58;3.51;58.06
79494;SHT31;68951;53.130;18.104;2023-05-01T00:20:26;3.48;58.13
79494;SHT31;68951;53.130;18.104;2023-05-01T00:22:56;3.45;58.20
79494;SHT31;68951;53.130;18.104;2023-05-01T00:25:23;3.40;58.25
79494;SHT31;68951;53.130;18.104;2023-05-01T00:27:50;3.38;58.37
79494;SHT31;68951;53.130;18.104;2023-05-01T00:30:17;3.36;58.46
79494;SHT31;68951;53.130;18.104;2023-05-01T00:32:44;3.34;58.53
79494;SHT31;68951;53.130;18.104;2023-05-01T00:35:10;3.34;58.61
79494;SHT31;68951;53.130;18.104;2023-05-01T00:37:38;3.31;58.69
79494;SHT31;68951;53.130;18.104;2023-05-01T00:40:05;3.28;58.80
79494;SHT31;68951;53.130;18.104;2023-05-01T00:42:34;3.25;58.87
79494;SHT31;68951;53.130;18.104;2023-05-01T00:45:02;3.25;58.92
79494;SHT31;68951;53.130;18.104;2023-05-01T00:47:29;3.18;59.00
79494;SHT31;68951;53.130;18.104;2023-05-01T00:49:56;3.13;59.09
79494;SHT31;68951;53.130;18.104;2023-05-01T00:52:24;3.16;59.17
79494;SHT31;68951;53.130;18.104;2023-05-01T00:54:51;3.15;59.24
79494;SHT31;68951;53.130;18.104;2023-05-01T00:57:20;3.13;59.33
79494;SHT31;68951;53.130;18.104;2023-05-01T00:59:48;3.07;59.38
79494;SHT31;68951;53.130;18.104;2023-05-01T01:02:15;3.05;59.45
79494;SHT31;68951;53.130;18.104;2023-05-01T01:04:43;3.05;59.50
79494;SHT31;68951;53.130;18.104;2023-05-01T01:18:12;2.85;59.78
79494;SHT31;68951;53.130;18.104;2023-05-01T01:21:00;2.82;59.90
79494;SHT31;68951;53.130;18.104;2023-05-01T01:23:46;2.79;59.99
79494;SHT31;68951;53.130;18.104;2023-05-01T01:32:53;2.63;60.24
79494;SHT31;68951;53.130;18.104;2023-05-01T01:35:28;2.58;60.31
79494;SHT31;68951;53.130;18.104;2023-05-01T01:38:04;2.56;60.40
79494;SHT31;68951;53.130;18.104;2023-05-01T01:40:44;2.51;60.44
79494;SHT31;68951;53.130;18.104;2023-05-01T01:43:38;2.49;60.49
79494;SHT31;68951;53.130;18.104;2023-05-01T01:46:11;2.46;60.56
79494;SHT31;68951;53.130;18.104;2023-05-01T01:48:40;2.44;60.67
79494;SHT31;68951;53.130;18.104;2023-05-01T01:51:12;2.44;60.71
79494;SHT31;68951;53.130;18.104;2023-05-01T01:53:45;2.49;60.81
79494;SHT31;68951;53.130;18.104;2023-05-01T01:56:20;2.54;60.90
79494;SHT31;68951;53.130;18.104;2023-05-01T01:58:50;2.55;60.90
79494;SHT31;68951;53.130;18.104;2023-05-01T02:01:19;2.63;60.98
79494;SHT31;68951;53.130;18.104;2023-05-01T02:03:49;2.69;61.00
79494;SHT31;68951;53.130;18.104;2023-05-01T02:06:18;2.69;60.99
79494;SHT31;68951;53.130;18.104;2023-05-01T02:08:48;2.62;60.99
79494;SHT31;68951;53.130;18.104;2023-05-01T02:11:17;2.57;61.00
79494;SHT31;68951;53.130;18.104;2023-05-01T02:13:48;2.54;61.03
79494;SHT31;68951;53.130;18.104;2023-05-01T02:16:17;2.49;61.10
79494;SHT31;68951;53.130;18.104;2023-05-01T02:18:46;2.46;61.14
79494;SHT31;68951;53.130;18.104;2023-05-01T02:21:15;2.46;61.20
79494;SHT31;68951;53.130;18.104;2023-05-01T02:23:44;2.43;61.27
79494;SHT31;68951;53.130;18.104;2023-05-01T02:26:12;2.41;61.30
79494;SHT31;68951;53.130;18.104;2023-05-01T02:28:42;2.38;61.37
79494;SHT31;68951;53.130;18.104;2023-05-01T02:31:09;2.35;61.41
79494;SHT31;68951;53.130;18.104;2023-05-01T02:33:36;2.32;61.50
79494;SHT31;68951;53.130;18.104;2023-05-01T02:36:03;2.29;61.59
79494;SHT31;68951;53.130;18.104;2023-05-01T02:38:30;2.28;61.61
79494;SHT31;68951;53.130;18.104;2023-05-01T02:40:58;2.27;61.70
79494;SHT31;68951;53.130;18.104;2023-05-01T02:43:27;2.26;61.77
79494;SHT31;68951;53.130;18.104;2023-05-01T02:45:59;2.25;61.81
79494;SHT31;68951;53.130;18.104;2023-05-01T02:48:29;2.20;61.89
79494;SHT31;68951;53.130;18.104;2023-05-01T02:50:59;2.18;61.95
79494;SHT31;68951;53.130;18.104;2023-05-01T02:53:29;2.16;62.03
79494;SHT31;68951;53.130;18.104;2023-05-01T02:55:58;2.14;62.10
79494;SHT31;68951;53.130;18.104;2023-05-01T02:58:25;2.12;62.15
79494;SHT31;68951;53.130;18.104;2023-05-01T03:00:57;2.13;62.23
79494;SHT31;68951;53.130;18.104;2023-05-01T03:03:24;2.11;62.30
79494;SHT31;68951;53.130;18.104;2023-05-01T03:05:53;2.13;62.31
79494;SHT31;68951;53.130;18.104;2023-05-01T03:08:19;2.16;62.37
79494;SHT31;68951;53.130;18.104;2023-05-01T03:10:46;2.23;62.40
79494;SHT31;68951;53.130;18.104;2023-05-01T03:13:13;2.32;62.46
79494;SHT31;68951;53.130;18.104;2023-05-01T03:15:40;2.32;62.46
79494;SHT31;68951;53.130;18.104;2023-05-01T03:18:07;2.31;62.48
79494;SHT31;68951;53.130;18.104;2023-05-01T03:20:34;2.30;62.50
79494;SHT31;68951;53.130;18.104;2023-05-01T03:23:01;2.28;62.53
79494;SHT31;68951;53.130;18.104;2023-05-01T03:25:28;2.25;62.55
79494;SHT31;68951;53.130;18.104;2023-05-01T03:27:55;2.24;62.60
79494;SHT31;68951;53.130;18.104;2023-05-01T03:30:22;2.23;62.60
79494;SHT31;68951;53.130;18.104;2023-05-01T03:32:49;2.20;62.67
79494;SHT31;68951;53.130;18.104;2023-05-01T03:35:16;2.21;62.72
79494;SHT31;68951;53.130;18.104;2023-05-01T03:37:43;2.21;62.72
79494;SHT31;68951;53.130;18.104;2023-05-01T03:40:10;2.19;62.80
79494;SHT31;68951;53.130;18.104;2023-05-01T03:42:38;2.20;62.80
79494;SHT31;68951;53.130;18.104;2023-05-01T03:45:05;2.19;62.88
79494;SHT31;68951;53.130;18.104;2023-05-01T03:47:33;2.21;62.90
79494;SHT31;68951;53.130;18.104;2023-05-01T03:50:00;2.24;62.96
79494;SHT31;68951;53.130;18.104;2023-05-01T03:52:27;2.26;63.00
79494;SHT31;68951;53.130;18.104;2023-05-01T03:54:54;2.26;63.04
79494;SHT31;68951;53.130;18.104;2023-05-01T03:57:20;2.26;63.10
79494;SHT31;68951;53.130;18.104;2023-05-01T03:59:48;2.26;63.18
79494;SHT31;68951;53.130;18.104;2023-05-01T04:02:15;2.30;63.20
79494;SHT31;68951;53.130;18.104;2023-05-01T04:04:42;2.32;63.26
79494;SHT31;68951;53.130;18.104;2023-05-01T04:07:10;2.38;63.32
79494;SHT31;68951;53.130;18.104;2023-05-01T04:09:37;2.43;63.40
79494;SHT31;68951;53.130;18.104;2023-05-01T04:12:04;2.52;63.44
79494;SHT31;68951;53.130;18.104;2023-05-01T04:14:31;2.63;63.46
79494;SHT31;68951;53.130;18.104;2023-05-01T04:16:58;2.72;63.50
79494;SHT31;68951;53.130;18.104;2023-05-01T04:19:25;2.77;63.50
79494;SHT31;68951;53.130;18.104;2023-05-01T04:21:52;2.84;63.56
79494;SHT31;68951;53.130;18.104;2023-05-01T04:24:20;2.93;63.59
79494;SHT31;68951;53.130;18.104;2023-05-01T04:26:47;3.01;63.60
79494;SHT31;68951;53.130;18.104;2023-05-01T04:29:13;3.07;63.65
79494;SHT31;68951;53.130;18.104;2023-05-01T04:31:40;3.14;63.70
79494;SHT31;68951;53.130;18.104;2023-05-01T04:34:08;3.22;63.71
79494;SHT31;68951;53.130;18.104;2023-05-01T04:36:35;3.29;63.76
79494;SHT31;68951;53.130;18.104;2023-05-01T04:39:02;3.38;63.80
79494;SHT31;68951;53.130;18.104;2023-05-01T04:41:29;3.47;63.82
79494;SHT31;68951;53.130;18.104;2023-05-01T04:43:56;3.55;63.89
79494;SHT31;68951;53.130;18.104;2023-05-01T04:46:23;3.62;63.90
79494;SHT31;68951;53.130;18.104;2023-05-01T04:48:49;3.70;63.92
79494;SHT31;68951;53.130;18.104;2023-05-01T04:51:16;3.80;64.00
79494;SHT31;68951;53.130;18.104;2023-05-01T04:53:43;3.87;64.00
79494;SHT31;68951;53.130;18.104;2023-05-01T04:56:10;3.97;64.02
79494;SHT31;68951;53.130;18.104;2023-05-01T04:58:37;4.05;64.09
79494;SHT31;68951;53.130;18.104;2023-05-01T05:01:04;4.13;64.11
79494;SHT31;68951;53.130;18.104;2023-05-01T05:03:31;4.19;64.15
79494;SHT31;68951;53.130;18.104;2023-05-01T05:05:58;4.24;64.19
79494;SHT31;68951;53.130;18.104;2023-05-01T05:08:25;4.36;64.23
79494;SHT31;68951;53.130;18.104;2023-05-01T05:10:55;4.53;64.30
79494;SHT31;68951;53.130;18.104;2023-05-01T05:13:24;4.71;64.34
79494;SHT31;68951;53.130;18.104;2023-05-01T05:15:51;4.91;64.40
79494;SHT31;68951;53.130;18.104;2023-05-01T05:18:18;5.11;64.39
79494;SHT31;68951;53.130;18.104;2023-05-01T05:20:45;5.25;64.40
79494;SHT31;68951;53.130;18.104;2023-05-01T05:23:12;5.40;64.42
79494;SHT31;68951;53.130;18.104;2023-05-01T05:25:39;5.54;64.49
79494;SHT31;68951;53.130;18.104;2023-05-01T05:28:06;5.70;64.51
79494;SHT31;68951;53.130;18.104;2023-05-01T05:30:33;5.88;64.60
79494;SHT31;68951;53.130;18.104;2023-05-01T05:33:00;6.04;64.60
79494;SHT31;68951;53.130;18.104;2023-05-01T05:35:26;6.19;64.62
79494;SHT31;68951;53.130;18.104;2023-05-01T05:37:53;6.26;64.54
79494;SHT31;68951;53.130;18.104;2023-05-01T05:40:20;6.36;64.43
79494;SHT31;68951;53.130;18.104;2023-05-01T05:42:47;6.48;64.31
79494;SHT31;68951;53.130;18.104;2023-05-01T05:45:14;6.57;64.14
79494;SHT31;68951;53.130;18.104;2023-05-01T05:47:40;6.67;64.04
79494;SHT31;68951;53.130;18.104;2023-05-01T05:50:07;6.76;63.90
79494;SHT31;68951;53.130;18.104;2023-05-01T05:52:35;6.84;63.73
79494;SHT31;68951;53.130;18.104;2023-05-01T05:55:02;6.93;63.60
79494;SHT31;68951;53.130;18.104;2023-05-01T05:57:29;7.06;63.50
79494;SHT31;68951;53.130;18.104;2023-05-01T05:59:55;7.18;63.41
79494;SHT31;68951;53.130;18.104;2023-05-01T06:02:22;7.30;63.29
79494;SHT31;68951;53.130;18.104;2023-05-01T06:04:49;7.38;63.14
79494;SHT31;68951;53.130;18.104;2023-05-01T06:07:16;7.44;63.03
79494;SHT31;68951;53.130;18.104;2023-05-01T06:09:43;7.55;62.99
79494;SHT31;68951;53.130;18.104;2023-05-01T06:12:10;7.68;62.93
79494;SHT31;68951;53.130;18.104;2023-05-01T06:14:37;7.81;62.83
79494;SHT31;68951;53.130;18.104;2023-05-01T06:17:04;7.90;62.67
79494;SHT31;68951;53.130;18.104;2023-05-01T06:19:31;8.01;62.56
79494;SHT31;68951;53.130;18.104;2023-05-01T06:21:58;8.13;62.46
79494;SHT31;68951;53.130;18.104;2023-05-01T06:24:25;8.26;62.35
79494;SHT31;68951;53.130;18.104;2023-05-01T06:26:52;8.31;62.21
79494;SHT31;68951;53.130;18.104;2023-05-01T06:29:19;8.37;62.06
79494;SHT31;68951;53.130;18.104;2023-05-01T06:31:46;8.50;61.94
79494;SHT31;68951;53.130;18.104;2023-05-01T06:34:13;8.61;61.72
79494;SHT31;68951;53.130;18.104;2023-05-01T06:36:40;8.64;61.45
79494;SHT31;68951;53.130;18.104;2023-05-01T06:39:07;8.72;61.28
79494;SHT31;68951;53.130;18.104;2023-05-01T06:41:34;8.84;61.11
79494;SHT31;68951;53.130;18.104;2023-05-01T06:44:01;8.97;60.97
79494;SHT31;68951;53.130;18.104;2023-05-01T06:46:28;9.03;60.74
79494;SHT31;68951;53.130;18.104;2023-05-01T06:48:55;9.17;60.63
79494;SHT31;68951;53.130;18.104;2023-05-01T06:51:22;9.32;60.50
79494;SHT31;68951;53.130;18.104;2023-05-01T06:53:50;9.46;60.32
79494;SHT31;68951;53.130;18.104;2023-05-01T06:56:16;9.53;60.13
79494;SHT31;68951;53.130;18.104;2023-05-01T06:58:43;9.61;59.95
79494;SHT31;68951;53.130;18.104;2023-05-01T07:01:10;9.71;59.83
79494;SHT31;68951;53.130;18.104;2023-05-01T07:03:37;9.82;59.68
79494;SHT31;68951;53.130;18.104;2023-05-01T07:06:04;9.90;59.51
79494;SHT31;68951;53.130;18.104;2023-05-01T07:08:31;10.01;59.34
79494;SHT31;68951;53.130;18.104;2023-05-01T07:10:58;10.14;59.12
79494;SHT31;68951;53.130;18.104;2023-05-01T07:13:25;10.24;58.85
79494;SHT31;68951;53.130;18.104;2023-05-01T07:15:52;10.31;58.52
79494;SHT31;68951;53.130;18.104;2023-05-01T07:18:20;10.41;58.25
79494;SHT31;68951;53.130;18.104;2023-05-01T07:20:47;10.51;57.99
79494;SHT31;68951;53.130;18.104;2023-05-01T07:23:15;10.60;57.72
79494;SHT31;68951;53.130;18.104;2023-05-01T07:25:43;10.69;57.36
79494;SHT31;68951;53.130;18.104;2023-05-01T07:28:11;10.81;57.06
79494;SHT31;68951;53.130;18.104;2023-05-01T07:30:38;10.92;56.73
79494;SHT31;68951;53.130;18.104;2023-05-01T07:33:05;11.05;56.51
79494;SHT31;68951;53.130;18.104;2023-05-01T07:35:32;11.13;56.32
79494;SHT31;68951;53.130;18.104;2023-05-01T07:37:59;11.27;56.21
79494;SHT31;68951;53.130;18.104;2023-05-01T07:40:25;11.32;55.90
79494;SHT31;68951;53.130;18.104;2023-05-01T07:42:52;11.38;55.63
79494;SHT31;68951;53.130;18.104;2023-05-01T07:45:19;11.52;55.36
79494;SHT31;68951;53.130;18.104;2023-05-01T07:47:46;11.60;54.87
79494;SHT31;68951;53.130;18.104;2023-05-01T07:50:13;11.70;54.33
79494;SHT31;68951;53.130;18.104;2023-05-01T07:52:40;11.71;53.63
79494;SHT31;68951;53.130;18.104;2023-05-01T07:55:08;11.79;53.13
79494;SHT31;68951;53.130;18.104;2023-05-01T07:57:35;11.84;52.50
79494;SHT31;68951;53.130;18.104;2023-05-01T08:00:02;11.92;51.98
79494;SHT31;68951;53.130;18.104;2023-05-01T08:02:30;12.00;51.69
79494;SHT31;68951;53.130;18.104;2023-05-01T08:04:57;12.09;51.56
79494;SHT31;68951;53.130;18.104;2023-05-01T08:07:24;12.21;51.40
79494;SHT31;68951;53.130;18.104;2023-05-01T08:09:51;12.32;50.93
79494;SHT31;68951;53.130;18.104;2023-05-01T08:12:18;12.37;50.52
79494;SHT31;68951;53.130;18.104;2023-05-01T08:14:45;12.39;50.15
79494;SHT31;68951;53.130;18.104;2023-05-01T08:17:12;12.50;49.92
79494;SHT31;68951;53.130;18.104;2023-05-01T08:19:38;12.59;49.61
79494;SHT31;68951;53.130;18.104;2023-05-01T08:22:05;12.60;49.20
79494;SHT31;68951;53.130;18.104;2023-05-01T08:24:32;12.73;49.11
79494;SHT31;68951;53.130;18.104;2023-05-01T08:26:59;12.89;48.98
79494;SHT31;68951;53.130;18.104;2023-05-01T08:29:26;12.98;48.70
79494;SHT31;68951;53.130;18.104;2023-05-01T08:31:54;13.08;48.28
79494;SHT31;68951;53.130;18.104;2023-05-01T08:34:23;13.16;47.77
79494;SHT31;68951;53.130;18.104;2023-05-01T08:36:50;13.25;47.32
79494;SHT31;68951;53.130;18.104;2023-05-01T08:39:17;13.29;46.95
79494;SHT31;68951;53.130;18.104;2023-05-01T08:41:44;13.36;46.63
79494;SHT31;68951;53.130;18.104;2023-05-01T08:44:13;13.47;46.47
79494;SHT31;68951;53.130;18.104;2023-05-01T08:46:45;13.67;46.40
79494;SHT31;68951;53.130;18.104;2023-05-01T08:49:18;13.90;46.32
79494;SHT31;68951;53.130;18.104;2023-05-01T08:51:47;14.02;45.95
79494;SHT31;68951;53.130;18.104;2023-05-01T08:54:18;14.10;45.64
79494;SHT31;68951;53.130;18.104;2023-05-01T08:56:46;14.25;45.44
79494;SHT31;68951;53.130;18.104;2023-05-01T08:59:15;14.39;45.13
79494;SHT31;68951;53.130;18.104;2023-05-01T09:01:44;14.52;44.84
79494;SHT31;68951;53.130;18.104;2023-05-01T09:04:13;14.64;44.53
79494;SHT31;68951;53.130;18.104;2023-05-01T09:06:42;14.84;44.30
79494;SHT31;68951;53.130;18.104;2023-05-01T09:09:10;15.03;44.11
79494;SHT31;68951;53.130;18.104;2023-05-01T09:11:37;15.29;44.00
79494;SHT31;68951;53.130;18.104;2023-05-01T09:14:05;15.49;43.85
79494;SHT31;68951;53.130;18.104;2023-05-01T09:16:34;15.63;43.50
79494;SHT31;68951;53.130;18.104;2023-05-01T09:19:03;15.68;42.86
79494;SHT31;68951;53.130;18.104;2023-05-01T09:21:30;15.75;42.40
79494;SHT31;68951;53.130;18.104;2023-05-01T09:23:57;15.82;41.95
79494;SHT31;68951;53.130;18.104;2023-05-01T09:26:24;15.92;41.67
79494;SHT31;68951;53.130;18.104;2023-05-01T09:28:52;16.19;41.63
79494;SHT31;68951;53.130;18.104;2023-05-01T09:31:24;16.53;41.52
79494;SHT31;68951;53.130;18.104;2023-05-01T09:33:59;16.74;41.27
79494;SHT31;68951;53.130;18.104;2023-05-01T09:36:29;16.92;40.95
79494;SHT31;68951;53.130;18.104;2023-05-01T09:38:59;16.95;40.27
79494;SHT31;68951;53.130;18.104;2023-05-01T09:41:27;16.89;39.72
79494;SHT31;68951;53.130;18.104;2023-05-01T09:43:58;17.03;39.52
79494;SHT31;68951;53.130;18.104;2023-05-01T09:46:26;17.18;39.24
79494;SHT31;68951;53.130;18.104;2023-05-01T09:48:55;17.31;39.02
79494;SHT31;68951;53.130;18.104;2023-05-01T09:51:25;17.58;39.07
79494;SHT31;68951;53.130;18.104;2023-05-01T09:53:59;17.78;38.65
79494;SHT31;68951;53.130;18.104;2023-05-01T09:56:29;18.00;38.53
79494;SHT31;68951;53.130;18.104;2023-05-01T09:59:15;18.29;38.41
79494;SHT31;68951;53.130;18.104;2023-05-01T10:01:46;18.48;37.99
79494;SHT31;68951;53.130;18.104;2023-05-01T10:04:15;18.58;37.65
79494;SHT31;68951;53.130;18.104;2023-05-01T10:06:43;18.81;37.46
79494;SHT31;68951;53.130;18.104;2023-05-01T10:09:12;19.00;37.21
79494;SHT31;68951;53.130;18.104;2023-05-01T10:11:56;19.24;36.85
79494;SHT31;68951;53.130;18.104;2023-05-01T10:14:24;19.30;36.35
79494;SHT31;68951;53.130;18.104;2023-05-01T10:16:53;19.35;36.03
79494;SHT31;68951;53.130;18.104;2023-05-01T10:19:22;19.46;35.82
79494;SHT31;68951;53.130;18.104;2023-05-01T10:21:49;19.69;35.68
79494;SHT31;68951;53.130;18.104;2023-05-01T10:24:16;19.91;35.49
79494;SHT31;68951;53.130;18.104;2023-05-01T10:26:43;20.11;35.17
79494;SHT31;68951;53.130;18.104;2023-05-01T10:29:14;20.18;34.75
79494;SHT31;68951;53.130;18.104;2023-05-01T10:31:42;20.52;34.68
79494;SHT31;68951;53.130;18.104;2023-05-01T10:34:10;21.03;34.32
79494;SHT31;68951;53.130;18.104;2023-05-01T10:36:46;21.09;33.67
79494;SHT31;68951;53.130;18.104;2023-05-01T10:39:29;20.94;33.10
79494;SHT31;68951;53.130;18.104;2023-05-01T10:42:02;21.09;32.88
79494;SHT31;68951;53.130;18.104;2023-05-01T10:44:31;21.11;32.46
79494;SHT31;68951;53.130;18.104;2023-05-01T10:47:11;21.29;32.35
79494;SHT31;68951;53.130;18.104;2023-05-01T10:50:06;21.62;31.99
79494;SHT31;68951;53.130;18.104;2023-05-01T10:55:43;22.17;31.48
79494;SHT31;68951;53.130;18.104;2023-05-01T10:58:12;22.25;31.28
79494;SHT31;68951;53.130;18.104;2023-05-01T11:12:07;22.89;29.71
79494;SHT31;68951;53.130;18.104;2023-05-01T11:20:11;23.53;29.18
79494;SHT31;68951;53.130;18.104;2023-05-01T11:22:59;23.61;28.81
79494;SHT31;68951;53.130;18.104;2023-05-01T11:25:26;23.62;28.32
79494;SHT31;68951;53.130;18.104;2023-05-01T11:27:59;23.41;27.65
79494;SHT31;68951;53.130;18.104;2023-05-01T11:30:38;23.27;27.36
79494;SHT31;68951;53.130;18.104;2023-05-01T11:33:05;23.12;27.25
79494;SHT31;68951;53.130;18.104;2023-05-01T11:35:33;23.27;27.46
79494;SHT31;68951;53.130;18.104;2023-05-01T11:38:00;23.52;27.32
79494;SHT31;68951;53.130;18.104;2023-05-01T11:40:28;23.64;26.82
79494;SHT31;68951;53.130;18.104;2023-05-01T11:45:32;23.76;26.50
79494;SHT31;68951;53.130;18.104;2023-05-01T11:48:03;24.19;26.47
79494;SHT31;68951;53.130;18.104;2023-05-01T11:50:32;24.14;26.26
79494;SHT31;68951;53.130;18.104;2023-05-01T11:53:01;24.14;26.42
79494;SHT31;68951;53.130;18.104;2023-05-01T11:55:30;24.18;26.42
79494;SHT31;68951;53.130;18.104;2023-05-01T11:57:58;23.95;26.21
79494;SHT31;68951;53.130;18.104;2023-05-01T12:00:27;23.98;26.38
79494;SHT31;68951;53.130;18.104;2023-05-01T12:03:05;24.00;26.51
79494;SHT31;68951;53.130;18.104;2023-05-01T12:05:33;24.25;26.73
79494;SHT31;68951;53.130;18.104;2023-05-01T12:10:41;25.53;26.82
79494;SHT31;68951;53.130;18.104;2023-05-01T12:13:10;25.93;26.69
79494;SHT31;68951;53.130;18.104;2023-05-01T12:15:40;25.78;26.37
79494;SHT31;68951;53.130;18.104;2023-05-01T12:18:10;25.48;26.23
79494;SHT31;68951;53.130;18.104;2023-05-01T12:20:40;25.45;26.33
79494;SHT31;68951;53.130;18.104;2023-05-01T12:23:09;25.59;26.22
79494;SHT31;68951;53.130;18.104;2023-05-01T12:25:38;25.49;26.12
79494;SHT31;68951;53.130;18.104;2023-05-01T12:28:10;25.55;26.10
79494;SHT31;68951;53.130;18.104;2023-05-01T12:30:40;25.62;26.02
79494;SHT31;68951;53.130;18.104;2023-05-01T12:35:48;26.39;25.85
79494;SHT31;68951;53.130;18.104;2023-05-01T12:38:17;26.69;25.41
79494;SHT31;68951;53.130;18.104;2023-05-01T12:43:20;26.20;25.00
79494;SHT31;68951;53.130;18.104;2023-05-01T12:45:56;26.05;25.08
79494;SHT31;68951;53.130;18.104;2023-05-01T12:48:23;25.86;25.19
79494;SHT31;68951;53.130;18.104;2023-05-01T12:50:51;25.50;25.28
79494;SHT31;68951;53.130;18.104;2023-05-01T12:53:24;25.74;25.52
79494;SHT31;68951;53.130;18.104;2023-05-01T12:55:53;26.07;25.68
79494;SHT31;68951;53.130;18.104;2023-05-01T12:58:23;26.12;25.60
79494;SHT31;68951;53.130;18.104;2023-05-01T13:01:01;26.44;25.59
79494;SHT31;68951;53.130;18.104;2023-05-01T13:03:28;27.10;25.58
79494;SHT31;68951;53.130;18.104;2023-05-01T13:05:57;27.59;25.44
79494;SHT31;68951;53.130;18.104;2023-05-01T13:08:30;27.76;25.26
79494;SHT31;68951;53.130;18.104;2023-05-01T13:13:39;27.77;25.12
79494;SHT31;68951;53.130;18.104;2023-05-01T13:16:08;27.88;25.00
79494;SHT31;68951;53.130;18.104;2023-05-01T13:18:50;27.56;24.97
79494;SHT31;68951;53.130;18.104;2023-05-01T13:21:19;27.58;25.11
79494;SHT31;68951;53.130;18.104;2023-05-01T13:23:58;28.24;25.15
79494;SHT31;68951;53.130;18.104;2023-05-01T13:26:27;28.01;24.90
79494;SHT31;68951;53.130;18.104;2023-05-01T13:28:57;27.66;24.91
79494;SHT31;68951;53.130;18.104;2023-05-01T13:31:25;27.37;25.04
79494;SHT31;68951;53.130;18.104;2023-05-01T13:33:53;27.76;25.09
79494;SHT31;68951;53.130;18.104;2023-05-01T13:36:23;27.96;25.02
79494;SHT31;68951;53.130;18.104;2023-05-01T13:38:52;27.47;24.71
79494;SHT31;68951;53.130;18.104;2023-05-01T13:41:24;26.71;24.63
79494;SHT31;68951;53.130;18.104;2023-05-01T13:43:53;26.12;24.75
79494;SHT31;68951;53.130;18.104;2023-05-01T13:46:23;26.21;25.06
79494;SHT31;68951;53.130;18.104;2023-05-01T13:48:52;26.52;25.02
79494;SHT31;68951;53.130;18.104;2023-05-01T13:51:20;26.74;24.91
79494;SHT31;68951;53.130;18.104;2023-05-01T13:53:49;26.97;24.80
79494;SHT31;68951;53.130;18.104;2023-05-01T13:56:18;27.29;24.77
79494;SHT31;68951;53.130;18.104;2023-05-01T13:58:46;27.83;24.57
79494;SHT31;68951;53.130;18.104;2023-05-01T14:01:14;28.18;24.42
79494;SHT31;68951;53.130;18.104;2023-05-01T14:03:44;28.13;24.07
79494;SHT31;68951;53.130;18.104;2023-05-01T14:06:12;27.62;24.00
79494;SHT31;68951;53.130;18.104;2023-05-01T14:08:42;27.33;24.14
79494;SHT31;68951;53.130;18.104;2023-05-01T14:11:10;27.32;24.16
79494;SHT31;68951;53.130;18.104;2023-05-01T14:13:39;26.99;24.04
79494;SHT31;68951;53.130;18.104;2023-05-01T14:16:08;26.54;24.09
79494;SHT31;68951;53.130;18.104;2023-05-01T14:18:44;26.24;24.06
79494;SHT31;68951;53.130;18.104;2023-05-01T14:21:16;26.25;24.16
79494;SHT31;68951;53.130;18.104;2023-05-01T14:23:44;26.33;24.18
79494;SHT31;68951;53.130;18.104;2023-05-01T14:26:16;26.02;24.14
79494;SHT31;68951;53.130;18.104;2023-05-01T14:28:44;25.95;24.35
79494;SHT31;68951;53.130;18.104;2023-05-01T14:31:23;25.84;24.49
79494;SHT31;68951;53.130;18.104;2023-05-01T14:34:04;25.49;24.62
79494;SHT31;68951;53.130;18.104;2023-05-01T14:36:32;25.09;24.65
79494;SHT31;68951;53.130;18.104;2023-05-01T14:38:59;24.74;24.86
79494;SHT31;68951;53.130;18.104;2023-05-01T14:41:28;24.36;25.06
79494;SHT31;68951;53.130;18.104;2023-05-01T14:43:55;24.14;25.28
79494;SHT31;68951;53.130;18.104;2023-05-01T14:46:26;24.16;25.56
79494;SHT31;68951;53.130;18.104;2023-05-01T14:48:56;24.24;25.68
79494;SHT31;68951;53.130;18.104;2023-05-01T14:51:25;24.17;25.82
79494;SHT31;68951;53.130;18.104;2023-05-01T14:53:53;24.21;25.96
79494;SHT31;68951;53.130;18.104;2023-05-01T14:56:20;24.28;26.16
79494;SHT31;68951;53.130;18.104;2023-05-01T14:58:48;24.09;26.20
79494;SHT31;68951;53.130;18.104;2023-05-01T15:01:15;23.72;26.29
79494;SHT31;68951;53.130;18.104;2023-05-01T15:03:43;23.51;26.44
79494;SHT31;68951;53.130;18.104;2023-05-01T15:06:10;23.35;26.62
79494;SHT31;68951;53.130;18.104;2023-05-01T15:08:37;23.23;26.86
79494;SHT31;68951;53.130;18.104;2023-05-01T15:11:04;23.06;27.03
79494;SHT31;68951;53.130;18.104;2023-05-01T15:13:31;22.84;27.10
79494;SHT31;68951;53.130;18.104;2023-05-01T15:15:58;22.56;27.19
79494;SHT31;68951;53.130;18.104;2023-05-01T15:18:25;22.26;27.38
79494;SHT31;68951;53.130;18.104;2023-05-01T15:20:51;22.03;27.58
79494;SHT31;68951;53.130;18.104;2023-05-01T15:23:20;21.86;27.79
79494;SHT31;68951;53.130;18.104;2023-05-01T15:25:49;21.71;28.08
79494;SHT31;68951;53.130;18.104;2023-05-01T15:28:15;21.51;28.25
79494;SHT31;68951;53.130;18.104;2023-05-01T15:30:43;21.31;28.46
79494;SHT31;68951;53.130;18.104;2023-05-01T15:33:12;21.24;28.68
79494;SHT31;68951;53.130;18.104;2023-05-01T15:35:40;21.14;28.81
79494;SHT31;68951;53.130;18.104;2023-05-01T15:38:07;20.90;28.84
79494;SHT31;68951;53.130;18.104;2023-05-01T15:40:34;20.77;29.02
79494;SHT31;68951;53.130;18.104;2023-05-01T15:43:03;20.63;29.18
79494;SHT31;68951;53.130;18.104;2023-05-01T15:45:31;20.49;29.23
79494;SHT31;68951;53.130;18.104;2023-05-01T15:47:58;20.37;29.32
79494;SHT31;68951;53.130;18.104;2023-05-01T15:50:26;20.17;29.41
79494;SHT31;68951;53.130;18.104;2023-05-01T15:52:53;19.98;29.55
79494;SHT31;68951;53.130;18.104;2023-05-01T15:55:20;19.90;29.70
79494;SHT31;68951;53.130;18.104;2023-05-01T15:57:47;19.72;29.82
79494;SHT31;68951;53.130;18.104;2023-05-01T16:00:14;19.56;29.98
79494;SHT31;68951;53.130;18.104;2023-05-01T16:02:42;19.46;30.16
79494;SHT31;68951;53.130;18.104;2023-05-01T16:05:10;19.35;30.22
79494;SHT31;68951;53.130;18.104;2023-05-01T16:07:39;19.24;30.35
79494;SHT31;68951;53.130;18.104;2023-05-01T16:10:06;19.14;30.44
79494;SHT31;68951;53.130;18.104;2023-05-01T16:12:34;19.10;30.60
79494;SHT31;68951;53.130;18.104;2023-05-01T16:15:02;19.02;30.73
79494;SHT31;68951;53.130;18.104;2023-05-01T16:17:31;18.92;30.85
79494;SHT31;68951;53.130;18.104;2023-05-01T16:19:59;18.87;30.98
79494;SHT31;68951;53.130;18.104;2023-05-01T16:22:27;18.83;31.14